sensor_id;sensor_type;location;lat;lon;timestamp;temperature;humidity
17740;DHT22;8990;33.226;-97.150;2023-04-08T00:02:27;17.10;99.90
17740;DHT22;8990;33.226;-97.150;2023-04-08T00:04:56;17.10;99.90
17740;DHT22;8990;33.226;-97.150;2023-04-08T00:07:25;17.20;99.90
17740;DHT22;8990;33.226;-97.150;2023-04-08T00:09:54;17.20;99.90
17740;DHT22;8990;33.226;-97.150;2023-04-08T00:12:23;17.10;99.90
17740;DHT22;8990;33.226;-97.150;2023-04-08T00:14:53;17.10;99.90
17740;DHT22;8990;33.226;-97.150;2023-04-08T00:17:22;17.20;99.90
17740;DHT22;8990;33.226;-97.150;2023-04-08T00:19:51;17.20;99.90
17740;DHT22;8990;33.226;-97.150;2023-04-08T00:22:21;17.10;99.90
17740;DHT22;8990;33.226;-97.150;2023-04-08T00:24:51;17.20;99.90
17740;DHT22;8990;33.226;-97.150;2023-04-08T00:27:20;17.20;99.90
17740;DHT22;8990;33.226;-97.150;2023-04-08T00:29:51;17.20;99.90
17740;DHT22;8990;33.226;-97.150;2023-04-08T00:32:21;17.20;99.90
17740;DHT22;8990;33.226;-97.150;2023-04-08T00:34:52;17.20;99.90
17740;DHT22;8990;33.226;-97.150;2023-04-08T00:37:22;17.10;99.90
17740;DHT22;8990;33.226;-97.150;2023-04-08T00:39:50;17.20;99.90
17740;DHT22;8990;33.226;-97.150;2023-04-08T00:42:20;17.20;99.90
17740;DHT22;8990;33.226;-97.150;2023-04-08T00:44:49;17.20;99.90
17740;DHT22;8990;33.226;-97.150;2023-04-08T00:47:20;17.20;99.90
17740;DHT22;8990;33.226;-97.150;2023-04-08T00:49:49;17.10;99.90
17740;DHT22;8990;33.226;-97.150;2023-04-08T00:52:18;17.00;99.90
17740;DHT22;8990;33.226;-97.150;2023-04-08T00:54:47;16.90;99.90
17740;DHT22;8990;33.226;-97.150;2023-04-08T00:57:16;16.90;99.90
17740;DHT22;8990;33.226;-97.150;2023-04-08T00:59:44;17.00;99.90
17740;DHT22;8990;33.226;-97.150;2023-04-08T01:02:20;16.90;99.90
17740;DHT22;8990;33.226;-97.150;2023-04-08T01:04:56;16.90;99.90
17740;DHT22;8990;33.226;-97.150;2023-04-08T01:07:29;16.90;99.90
17740;DHT22;8990;33.226;-97.150;2023-04-08T01:10:02;16.80;99.90
17740;DHT22;8990;33.226;-97.150;2023-04-08T01:12:40;16.80;99.90
17740;DHT22;8990;33.226;-97.150;2023-04-08T01:15:11;16.80;99.90
17740;DHT22;8990;33.226;-97.150;2023-04-08T01:17:44;16.80;99.90
17740;DHT22;8990;33.226;-97.150;2023-04-08T01:20:14;16.70;99.90
17740;DHT22;8990;33.226;-97.150;2023-04-08T01:22:56;16.80;99.90
17740;DHT22;8990;33.226;-97.150;2023-04-08T01:25:29;16.90;99.90
17740;DHT22;8990;33.226;-97.150;2023-04-08T01:28:04;16.80;99.90
17740;DHT22;8990;33.226;-97.150;2023-04-08T01:30:34;16.80;99.90
17740;DHT22;8990;33.226;-97.150;2023-04-08T01:33:03;16.80;99.90
17740;DHT22;8990;33.226;-97.150;2023-04-08T01:35:33;16.70;99.90
17740;DHT22;8990;33.226;-97.150;2023-04-08T01:38:05;16.80;99.90
17740;DHT22;8990;33.226;-97.150;2023-04-08T01:40:35;16.80;99.90
17740;DHT22;8990;33.226;-97.150;2023-04-08T01:43:09;16.70;99.90
17740;DHT22;8990;33.226;-97.150;2023-04-08T01:45:38;16.70;99.90
17740;DHT22;8990;33.226;-97.150;2023-04-08T01:48:08;16.70;99.90
17740;DHT22;8990;33.226;-97.150;2023-04-08T01:50:37;16.70;99.90
17740;DHT22;8990;33.226;-97.150;2023-04-08T01:53:08;16.60;99.90
17740;DHT22;8990;33.226;-97.150;2023-04-08T01:55:38;16.50;99.90
17740;DHT22;8990;33.226;-97.150;2023-04-08T01:58:19;16.60;99.90
17740;DHT22;8990;33.226;-97.150;2023-04-08T02:00:49;16.50;99.90
17740;DHT22;8990;33.226;-97.150;2023-04-08T02:03:22;16.50;99.90
17740;DHT22;8990;33.226;-97.150;2023-04-08T02:05:51;16.50;99.90
17740;DHT22;8990;33.226;-97.150;2023-04-08T02:08:20;16.60;99.90
17740;DHT22;8990;33.226;-97.150;2023-04-08T02:10:49;16.50;99.90
17740;DHT22;8990;33.226;-97.150;2023-04-08T02:13:20;16.50;99.90
17740;DHT22;8990;33.226;-97.150;2023-04-08T02:15:56;16.50;99.90
17740;DHT22;8990;33.226;-97.150;2023-04-08T02:18:27;16.40;99.90
17740;DHT22;8990;33.226;-97.150;2023-04-08T02:21:01;16.30;99.90
17740;DHT22;8990;33.226;-97.150;2023-04-08T02:23:32;16.30;99.90
17740;DHT22;8990;33.226;-97.150;2023-04-08T02:26:05;16.30;99.90
17740;DHT22;8990;33.226;-97.150;2023-04-08T02:28:37;16.30;99.90
17740;DHT22;8990;33.226;-97.150;2023-04-08T02:31:09;16.20;99.90
17740;DHT22;8990;33.226;-97.150;2023-04-08T02:33:44;16.20;99.90
17740;DHT22;8990;33.226;-97.150;2023-04-08T02:36:14;16.10;99.90
17740;DHT22;8990;33.226;-97.150;2023-04-08T02:38:47;16.10;99.90
17740;DHT22;8990;33.226;-97.150;2023-04-08T02:41:17;16.20;99.90
17740;DHT22;8990;33.226;-97.150;2023-04-08T02:43:47;16.10;99.90
17740;DHT22;8990;33.226;-97.150;2023-04-08T02:46:21;16.00;99.90
17740;DHT22;8990;33.226;-97.150;2023-04-08T02:48:50;16.10;99.90
17740;DHT22;8990;33.226;-97.150;2023-04-08T02:51:19;16.10;99.90
17740;DHT22;8990;33.226;-97.150;2023-04-08T02:53:47;16.10;99.90
17740;DHT22;8990;33.226;-97.150;2023-04-08T02:56:17;16.10;99.90
17740;DHT22;8990;33.226;-97.150;2023-04-08T02:58:47;16.10;99.90
17740;DHT22;8990;33.226;-97.150;2023-04-08T03:01:19;16.20;99.90
17740;DHT22;8990;33.226;-97.150;2023-04-08T03:03:47;16.20;99.90
17740;DHT22;8990;33.226;-97.150;2023-04-08T03:06:17;16.10;99.90
17740;DHT22;8990;33.226;-97.150;2023-04-08T03:08:45;16.10;99.90
17740;DHT22;8990;33.226;-97.150;2023-04-08T03:11:14;16.10;99.90
17740;DHT22;8990;33.226;-97.150;2023-04-08T03:13:43;16.10;99.90
17740;DHT22;8990;33.226;-97.150;2023-04-08T03:16:14;16.10;99.90
17740;DHT22;8990;33.226;-97.150;2023-04-08T03:18:43;16.10;99.90
17740;DHT22;8990;33.226;-97.150;2023-04-08T03:21:12;16.00;99.90
17740;DHT22;8990;33.226;-97.150;2023-04-08T03:23:41;16.00;99.90
17740;DHT22;8990;33.226;-97.150;2023-04-08T03:26:10;16.00;99.90
17740;DHT22;8990;33.226;-97.150;2023-04-08T03:28:39;16.10;99.90
17740;DHT22;8990;33.226;-97.150;2023-04-08T03:31:08;16.10;99.90
17740;DHT22;8990;33.226;-97.150;2023-04-08T03:33:38;16.00;99.90
17740;DHT22;8990;33.226;-97.150;2023-04-08T03:36:07;16.10;99.90
17740;DHT22;8990;33.226;-97.150;2023-04-08T03:38:36;16.00;99.90
17740;DHT22;8990;33.226;-97.150;2023-04-08T03:41:05;16.10;99.90
17740;DHT22;8990;33.226;-97.150;2023-04-08T03:43:34;16.10;99.90
17740;DHT22;8990;33.226;-97.150;2023-04-08T03:46:04;16.00;99.90
17740;DHT22;8990;33.226;-97.150;2023-04-08T03:48:33;16.00;99.90
17740;DHT22;8990;33.226;-97.150;2023-04-08T03:51:05;16.00;99.90
17740;DHT22;8990;33.226;-97.150;2023-04-08T03:53:34;15.90;99.90
17740;DHT22;8990;33.226;-97.150;2023-04-08T03:56:03;15.90;99.90
17740;DHT22;8990;33.226;-97.150;2023-04-08T03:58:32;15.90;99.90
17740;DHT22;8990;33.226;-97.150;2023-04-08T04:01:01;15.80;99.90
17740;DHT22;8990;33.226;-97.150;2023-04-08T04:03:30;15.80;99.90
17740;DHT22;8990;33.226;-97.150;2023-04-08T04:05:58;15.80;99.90
17740;DHT22;8990;33.226;-97.150;2023-04-08T04:08:29;15.70;99.90
17740;DHT22;8990;33.226;-97.150;2023-04-08T04:10:59;15.70;99.90
17740;DHT22;8990;33.226;-97.150;2023-04-08T04:13:28;15.70;99.90
17740;DHT22;8990;33.226;-97.150;2023-04-08T04:15:57;15.80;99.90
17740;DHT22;8990;33.226;-97.150;2023-04-08T04:18:26;15.70;99.90
17740;DHT22;8990;33.226;-97.150;2023-04-08T04:20:55;15.70;99.90
17740;DHT22;8990;33.226;-97.150;2023-04-08T04:23:24;15.60;99.90
17740;DHT22;8990;33.226;-97.150;2023-04-08T04:25:55;15.60;99.90
17740;DHT22;8990;33.226;-97.150;2023-04-08T04:28:24;15.50;99.90
17740;DHT22;8990;33.226;-97.150;2023-04-08T04:30:53;15.50;99.90
17740;DHT22;8990;33.226;-97.150;2023-04-08T04:33:22;15.40;99.90
17740;DHT22;8990;33.226;-97.150;2023-04-08T04:35:51;15.40;99.90
17740;DHT22;8990;33.226;-97.150;2023-04-08T04:38:20;15.40;99.90
17740;DHT22;8990;33.226;-97.150;2023-04-08T04:40:49;15.30;99.90
17740;DHT22;8990;33.226;-97.150;2023-04-08T04:43:20;15.30;99.90
17740;DHT22;8990;33.226;-97.150;2023-04-08T04:45:49;15.30;99.90
17740;DHT22;8990;33.226;-97.150;2023-04-08T04:48:18;15.30;99.90
17740;DHT22;8990;33.226;-97.150;2023-04-08T04:50:54;15.40;99.90
17740;DHT22;8990;33.226;-97.150;2023-04-08T04:53:23;15.40;99.90
17740;DHT22;8990;33.226;-97.150;2023-04-08T04:55:52;15.40;99.90
17740;DHT22;8990;33.226;-97.150;2023-04-08T04:58:22;15.40;99.90
17740;DHT22;8990;33.226;-97.150;2023-04-08T05:00:51;15.40;99.90
17740;DHT22;8990;33.226;-97.150;2023-04-08T05:03:20;15.40;99.90
17740;DHT22;8990;33.226;-97.150;2023-04-08T05:05:53;15.40;99.90
17740;DHT22;8990;33.226;-97.150;2023-04-08T05:08:23;15.40;99.90
17740;DHT22;8990;33.226;-97.150;2023-04-08T05:10:51;15.40;99.90
17740;DHT22;8990;33.226;-97.150;2023-04-08T05:13:23;15.30;99.90
17740;DHT22;8990;33.226;-97.150;2023-04-08T05:15:52;15.40;99.90
17740;DHT22;8990;33.226;-97.150;2023-04-08T05:18:21;15.40;99.90
17740;DHT22;8990;33.226;-97.150;2023-04-08T05:20:49;15.40;99.90
17740;DHT22;8990;33.226;-97.150;2023-04-08T05:23:18;15.40;99.90
17740;DHT22;8990;33.226;-97.150;2023-04-08T05:25:47;15.40;99.90
17740;DHT22;8990;33.226;-97.150;2023-04-08T05:28:16;15.30;99.90
17740;DHT22;8990;33.226;-97.150;2023-04-08T05:30:50;15.40;99.90
17740;DHT22;8990;33.226;-97.150;2023-04-08T05:33:19;15.40;99.90
17740;DHT22;8990;33.226;-97.150;2023-04-08T05:35:48;15.40;99.90
17740;DHT22;8990;33.226;-97.150;2023-04-08T05:38:16;15.40;99.90
17740;DHT22;8990;33.226;-97.150;2023-04-08T05:40:46;15.40;99.90
17740;DHT22;8990;33.226;-97.150;2023-04-08T05:43:15;15.40;99.90
17740;DHT22;8990;33.226;-97.150;2023-04-08T05:45:44;15.40;99.90
17740;DHT22;8990;33.226;-97.150;2023-04-08T05:48:15;15.40;99.90
17740;DHT22;8990;33.226;-97.150;2023-04-08T05:50:43;15.50;99.90
17740;DHT22;8990;33.226;-97.150;2023-04-08T05:53:14;15.50;99.90
17740;DHT22;8990;33.226;-97.150;2023-04-08T05:55:43;15.50;99.90
17740;DHT22;8990;33.226;-97.150;2023-04-08T05:58:13;15.50;99.90
17740;DHT22;8990;33.226;-97.150;2023-04-08T06:00:41;15.50;99.90
17740;DHT22;8990;33.226;-97.150;2023-04-08T06:03:10;15.40;99.90
17740;DHT22;8990;33.226;-97.150;2023-04-08T06:05:41;15.50;99.90
17740;DHT22;8990;33.226;-97.150;2023-04-08T06:08:10;15.50;99.90
17740;DHT22;8990;33.226;-97.150;2023-04-08T06:10:39;15.50;99.90
17740;DHT22;8990;33.226;-97.150;2023-04-08T06:13:08;15.50;99.90
17740;DHT22;8990;33.226;-97.150;2023-04-08T06:15:37;15.50;99.90
17740;DHT22;8990;33.226;-97.150;2023-04-08T06:18:06;15.50;99.90
17740;DHT22;8990;33.226;-97.150;2023-04-08T06:20:35;15.50;99.90
17740;DHT22;8990;33.226;-97.150;2023-04-08T06:23:06;15.50;99.90
17740;DHT22;8990;33.226;-97.150;2023-04-08T06:25:34;15.50;99.90
17740;DHT22;8990;33.226;-97.150;2023-04-08T06:28:04;15.40;99.90
17740;DHT22;8990;33.226;-97.150;2023-04-08T06:30:34;15.40;99.90
17740;DHT22;8990;33.226;-97.150;2023-04-08T06:33:03;15.40;99.90
17740;DHT22;8990;33.226;-97.150;2023-04-08T06:35:31;15.40;99.90
17740;DHT22;8990;33.226;-97.150;2023-04-08T06:38:00;15.40;99.90
17740;DHT22;8990;33.226;-97.150;2023-04-08T06:40:31;15.40;99.90
17740;DHT22;8990;33.226;-97.150;2023-04-08T06:43:00;15.40;99.90
17740;DHT22;8990;33.226;-97.150;2023-04-08T06:45:35;15.40;99.90
17740;DHT22;8990;33.226;-97.150;2023-04-08T06:48:04;15.40;99.90
17740;DHT22;8990;33.226;-97.150;2023-04-08T06:50:35;15.40;99.90
17740;DHT22;8990;33.226;-97.150;2023-04-08T06:53:04;15.40;99.90
17740;DHT22;8990;33.226;-97.150;2023-04-08T06:55:35;15.40;99.90
17740;DHT22;8990;33.226;-97.150;2023-04-08T06:58:04;15.40;99.90
17740;DHT22;8990;33.226;-97.150;2023-04-08T07:00:32;15.30;99.90
17740;DHT22;8990;33.226;-97.150;2023-04-08T07:03:01;15.30;99.90
17740;DHT22;8990;33.226;-97.150;2023-04-08T07:05:30;15.40;99.90
17740;DHT22;8990;33.226;-97.150;2023-04-08T07:07:59;15.40;99.90
17740;DHT22;8990;33.226;-97.150;2023-04-08T07:10:28;15.40;99.90
17740;DHT22;8990;33.226;-97.150;2023-04-08T07:12:58;15.40;99.90
17740;DHT22;8990;33.226;-97.150;2023-04-08T07:15:27;15.40;99.90
17740;DHT22;8990;33.226;-97.150;2023-04-08T07:17:56;15.40;99.90
17740;DHT22;8990;33.226;-97.150;2023-04-08T07:20:25;15.30;99.90
17740;DHT22;8990;33.226;-97.150;2023-04-08T07:22:54;15.30;99.90
17740;DHT22;8990;33.226;-97.150;2023-04-08T07:25:23;15.30;99.90
17740;DHT22;8990;33.226;-97.150;2023-04-08T07:27:53;15.30;99.90
17740;DHT22;8990;33.226;-97.150;2023-04-08T07:30:23;15.30;99.90
17740;DHT22;8990;33.226;-97.150;2023-04-08T07:32:52;15.30;99.90
17740;DHT22;8990;33.226;-97.150;2023-04-08T07:35:23;15.40;99.90
17740;DHT22;8990;33.226;-97.150;2023-04-08T07:37:52;15.30;99.90
17740;DHT22;8990;33.226;-97.150;2023-04-08T07:40:21;15.40;99.90
17740;DHT22;8990;33.226;-97.150;2023-04-08T07:42:50;15.30;99.90
17740;DHT22;8990;33.226;-97.150;2023-04-08T07:45:19;15.40;99.90
17740;DHT22;8990;33.226;-97.150;2023-04-08T07:47:49;15.40;99.90
17740;DHT22;8990;33.226;-97.150;2023-04-08T07:50:18;15.40;99.90
17740;DHT22;8990;33.226;-97.150;2023-04-08T07:52:47;15.40;99.90
17740;DHT22;8990;33.226;-97.150;2023-04-08T07:55:16;15.40;99.90
17740;DHT22;8990;33.226;-97.150;2023-04-08T07:57:45;15.40;99.90
17740;DHT22;8990;33.226;-97.150;2023-04-08T08:00:14;15.40;99.90
17740;DHT22;8990;33.226;-97.150;2023-04-08T08:02:49;15.40;99.90
17740;DHT22;8990;33.226;-97.150;2023-04-08T08:05:18;15.40;99.90
17740;DHT22;8990;33.226;-97.150;2023-04-08T08:07:48;15.40;99.90
17740;DHT22;8990;33.226;-97.150;2023-04-08T08:10:16;15.40;99.90
17740;DHT22;8990;33.226;-97.150;2023-04-08T08:12:45;15.40;99.90
17740;DHT22;8990;33.226;-97.150;2023-04-08T08:15:14;15.40;99.90
17740;DHT22;8990;33.226;-97.150;2023-04-08T08:17:43;15.40;99.90
17740;DHT22;8990;33.226;-97.150;2023-04-08T08:20:14;15.40;99.90
17740;DHT22;8990;33.226;-97.150;2023-04-08T08:22:44;15.30;99.90
17740;DHT22;8990;33.226;-97.150;2023-04-08T08:25:13;15.40;99.90
17740;DHT22;8990;33.226;-97.150;2023-04-08T08:27:42;15.40;99.90
17740;DHT22;8990;33.226;-97.150;2023-04-08T08:30:11;15.40;99.90
17740;DHT22;8990;33.226;-97.150;2023-04-08T08:32:40;15.40;99.90
17740;DHT22;8990;33.226;-97.150;2023-04-08T08:35:09;15.40;99.90
17740;DHT22;8990;33.226;-97.150;2023-04-08T08:37:39;15.40;99.90
17740;DHT22;8990;33.226;-97.150;2023-04-08T08:40:09;15.40;99.90
17740;DHT22;8990;33.226;-97.150;2023-04-08T08:42:38;15.30;99.90
17740;DHT22;8990;33.226;-97.150;2023-04-08T08:45:08;15.30;99.90
17740;DHT22;8990;33.226;-97.150;2023-04-08T08:47:37;15.30;99.90
17740;DHT22;8990;33.226;-97.150;2023-04-08T08:50:06;15.30;99.90
17740;DHT22;8990;33.226;-97.150;2023-04-08T08:52:35;15.30;99.90
17740;DHT22;8990;33.226;-97.150;2023-04-08T08:55:06;15.20;99.90
17740;DHT22;8990;33.226;-97.150;2023-04-08T08:57:35;15.20;99.90
17740;DHT22;8990;33.226;-97.150;2023-04-08T09:00:05;15.20;99.90
17740;DHT22;8990;33.226;-97.150;2023-04-08T09:02:35;15.20;99.90
17740;DHT22;8990;33.226;-97.150;2023-04-08T09:05:05;15.20;99.90
17740;DHT22;8990;33.226;-97.150;2023-04-08T09:07:35;15.30;99.90
17740;DHT22;8990;33.226;-97.150;2023-04-08T09:10:08;15.30;99.90
17740;DHT22;8990;33.226;-97.150;2023-04-08T09:12:53;15.20;99.90
17740;DHT22;8990;33.226;-97.150;2023-04-08T09:15:22;15.20;99.90
17740;DHT22;8990;33.226;-97.150;2023-04-08T09:17:51;15.20;99.90
17740;DHT22;8990;33.226;-97.150;2023-04-08T09:20:20;15.20;99.90
17740;DHT22;8990;33.226;-97.150;2023-04-08T09:22:57;15.20;99.90
17740;DHT22;8990;33.226;-97.150;2023-04-08T09:25:28;15.20;99.90
17740;DHT22;8990;33.226;-97.150;2023-04-08T09:27:59;15.20;99.90
17740;DHT22;8990;33.226;-97.150;2023-04-08T09:30:28;15.10;99.90
17740;DHT22;8990;33.226;-97.150;2023-04-08T09:32:59;15.10;99.90
17740;DHT22;8990;33.226;-97.150;2023-04-08T09:35:33;15.20;99.90
17740;DHT22;8990;33.226;-97.150;2023-04-08T09:38:02;15.10;99.90
17740;DHT22;8990;33.226;-97.150;2023-04-08T09:40:34;15.10;99.90
17740;DHT22;8990;33.226;-97.150;2023-04-08T09:43:04;15.10;99.90
17740;DHT22;8990;33.226;-97.150;2023-04-08T09:45:36;15.00;99.90
17740;DHT22;8990;33.226;-97.150;2023-04-08T09:48:11;15.00;99.90
17740;DHT22;8990;33.226;-97.150;2023-04-08T09:50:43;15.00;99.90
17740;DHT22;8990;33.226;-97.150;2023-04-08T09:53:15;15.00;99.90
17740;DHT22;8990;33.226;-97.150;2023-04-08T09:55:51;15.10;99.90
17740;DHT22;8990;33.226;-97.150;2023-04-08T09:58:24;15.00;99.90
17740;DHT22;8990;33.226;-97.150;2023-04-08T10:00:56;15.10;99.90
17740;DHT22;8990;33.226;-97.150;2023-04-08T10:03:28;15.00;99.90
17740;DHT22;8990;33.226;-97.150;2023-04-08T10:06:00;14.90;99.90
17740;DHT22;8990;33.226;-97.150;2023-04-08T10:08:31;14.90;99.90
17740;DHT22;8990;33.226;-97.150;2023-04-08T10:11:02;14.90;99.90
17740;DHT22;8990;33.226;-97.150;2023-04-08T10:13:32;14.90;99.90
17740;DHT22;8990;33.226;-97.150;2023-04-08T10:16:22;14.90;99.90
17740;DHT22;8990;33.226;-97.150;2023-04-08T10:18:53;14.90;99.90
17740;DHT22;8990;33.226;-97.150;2023-04-08T10:21:37;14.90;99.90
17740;DHT22;8990;33.226;-97.150;2023-04-08T10:24:08;14.90;99.90
17740;DHT22;8990;33.226;-97.150;2023-04-08T10:26:40;14.90;99.90
17740;DHT22;8990;33.226;-97.150;2023-04-08T10:29:42;14.90;99.90
17740;DHT22;8990;33.226;-97.150;2023-04-08T10:32:36;14.80;99.90
17740;DHT22;8990;33.226;-97.150;2023-04-08T10:35:07;14.80;99.90
17740;DHT22;8990;33.226;-97.150;2023-04-08T10:37:36;14.80;99.90
17740;DHT22;8990;33.226;-97.150;2023-04-08T10:40:07;14.80;99.90
17740;DHT22;8990;33.226;-97.150;2023-04-08T10:42:53;14.80;99.90
17740;DHT22;8990;33.226;-97.150;2023-04-08T10:45:23;14.70;99.90
17740;DHT22;8990;33.226;-97.150;2023-04-08T10:47:52;14.70;99.90
17740;DHT22;8990;33.226;-97.150;2023-04-08T10:50:21;14.70;99.90
17740;DHT22;8990;33.226;-97.150;2023-04-08T10:52:51;14.70;99.90
17740;DHT22;8990;33.226;-97.150;2023-04-08T10:55:23;14.70;99.90
17740;DHT22;8990;33.226;-97.150;2023-04-08T10:57:54;14.70;99.90
17740;DHT22;8990;33.226;-97.150;2023-04-08T11:00:32;14.70;99.90
17740;DHT22;8990;33.226;-97.150;2023-04-08T11:03:02;14.70;99.90
17740;DHT22;8990;33.226;-97.150;2023-04-08T11:05:31;14.60;99.90
17740;DHT22;8990;33.226;-97.150;2023-04-08T11:08:00;14.60;99.90
17740;DHT22;8990;33.226;-97.150;2023-04-08T11:10:30;14.70;99.90
17740;DHT22;8990;33.226;-97.150;2023-04-08T11:13:00;14.70;99.90
17740;DHT22;8990;33.226;-97.150;2023-04-08T11:15:30;14.60;99.90
17740;DHT22;8990;33.226;-97.150;2023-04-08T11:18:00;14.70;99.90
17740;DHT22;8990;33.226;-97.150;2023-04-08T11:20:31;14.70;99.90
17740;DHT22;8990;33.226;-97.150;2023-04-08T11:23:03;14.70;99.90
17740;DHT22;8990;33.226;-97.150;2023-04-08T11:25:32;14.70;99.90
17740;DHT22;8990;33.226;-97.150;2023-04-08T11:28:02;14.80;99.90
17740;DHT22;8990;33.226;-97.150;2023-04-08T11:30:32;14.80;99.90
17740;DHT22;8990;33.226;-97.150;2023-04-08T11:33:01;14.80;99.90
17740;DHT22;8990;33.226;-97.150;2023-04-08T11:35:30;14.80;99.90
17740;DHT22;8990;33.226;-97.150;2023-04-08T11:37:59;14.70;99.90
17740;DHT22;8990;33.226;-97.150;2023-04-08T11:40:29;14.70;99.90
17740;DHT22;8990;33.226;-97.150;2023-04-08T11:42:58;14.70;99.90
17740;DHT22;8990;33.226;-97.150;2023-04-08T11:45:28;14.70;99.90
17740;DHT22;8990;33.226;-97.150;2023-04-08T11:47:57;14.70;99.90
17740;DHT22;8990;33.226;-97.150;2023-04-08T11:50:26;14.70;99.90
17740;DHT22;8990;33.226;-97.150;2023-04-08T11:52:56;14.70;99.90
17740;DHT22;8990;33.226;-97.150;2023-04-08T11:55:26;14.60;99.90
17740;DHT22;8990;33.226;-97.150;2023-04-08T11:58:01;14.60;99.90
17740;DHT22;8990;33.226;-97.150;2023-04-08T12:00:31;14.60;99.90
17740;DHT22;8990;33.226;-97.150;2023-04-08T12:03:00;14.60;99.90
17740;DHT22;8990;33.226;-97.150;2023-04-08T12:05:29;14.60;99.90
17740;DHT22;8990;33.226;-97.150;2023-04-08T12:07:58;14.60;99.90
17740;DHT22;8990;33.226;-97.150;2023-04-08T12:10:27;14.60;99.90
17740;DHT22;8990;33.226;-97.150;2023-04-08T12:12:55;14.50;99.90
17740;DHT22;8990;33.226;-97.150;2023-04-08T12:15:25;14.50;99.90
17740;DHT22;8990;33.226;-97.150;2023-04-08T12:17:55;14.60;99.90
17740;DHT22;8990;33.226;-97.150;2023-04-08T12:20:24;14.60;99.90
17740;DHT22;8990;33.226;-97.150;2023-04-08T12:22:53;14.50;99.90
17740;DHT22;8990;33.226;-97.150;2023-04-08T12:25:22;14.50;99.90
17740;DHT22;8990;33.226;-97.150;2023-04-08T12:27:51;14.50;99.90
17740;DHT22;8990;33.226;-97.150;2023-04-08T12:30:21;14.60;99.90
17740;DHT22;8990;33.226;-97.150;2023-04-08T12:32:55;14.50;99.90
17740;DHT22;8990;33.226;-97.150;2023-04-08T12:35:24;14.60;99.90
17740;DHT22;8990;33.226;-97.150;2023-04-08T12:37:53;14.60;99.90
17740;DHT22;8990;33.226;-97.150;2023-04-08T12:40:21;14.60;99.90
17740;DHT22;8990;33.226;-97.150;2023-04-08T12:42:50;14.60;99.90
17740;DHT22;8990;33.226;-97.150;2023-04-08T12:45:19;14.60;99.90
17740;DHT22;8990;33.226;-97.150;2023-04-08T12:47:48;14.60;99.90
17740;DHT22;8990;33.226;-97.150;2023-04-08T12:50:19;14.60;99.90
17740;DHT22;8990;33.226;-97.150;2023-04-08T12:52:47;14.60;99.90
17740;DHT22;8990;33.226;-97.150;2023-04-08T12:55:16;14.50;99.90
17740;DHT22;8990;33.226;-97.150;2023-04-08T12:57:45;14.50;99.90
17740;DHT22;8990;33.226;-97.150;2023-04-08T13:00:14;14.60;99.90
17740;DHT22;8990;33.226;-97.150;2023-04-08T13:02:43;14.60;99.90
17740;DHT22;8990;33.226;-97.150;2023-04-08T13:05:12;14.60;99.90
17740;DHT22;8990;33.226;-97.150;2023-04-08T13:07:42;14.60;99.90
17740;DHT22;8990;33.226;-97.150;2023-04-08T13:10:11;14.60;99.90
17740;DHT22;8990;33.226;-97.150;2023-04-08T13:12:40;14.70;99.90
17740;DHT22;8990;33.226;-97.150;2023-04-08T13:15:10;14.70;99.90
17740;DHT22;8990;33.226;-97.150;2023-04-08T13:17:40;14.80;99.90
17740;DHT22;8990;33.226;-97.150;2023-04-08T13:20:10;14.80;99.90
17740;DHT22;8990;33.226;-97.150;2023-04-08T13:22:39;14.80;99.90
17740;DHT22;8990;33.226;-97.150;2023-04-08T13:25:13;14.90;99.90
17740;DHT22;8990;33.226;-97.150;2023-04-08T13:27:45;14.90;99.90
17740;DHT22;8990;33.226;-97.150;2023-04-08T13:30:14;15.00;99.90
17740;DHT22;8990;33.226;-97.150;2023-04-08T13:32:43;15.00;99.90
17740;DHT22;8990;33.226;-97.150;2023-04-08T13:35:12;15.00;99.90
17740;DHT22;8990;33.226;-97.150;2023-04-08T13:37:41;15.10;99.90
17740;DHT22;8990;33.226;-97.150;2023-04-08T13:40:11;15.10;99.90
17740;DHT22;8990;33.226;-97.150;2023-04-08T13:42:41;15.10;99.90
17740;DHT22;8990;33.226;-97.150;2023-04-08T13:45:10;15.00;99.90
17740;DHT22;8990;33.226;-97.150;2023-04-08T13:47:39;15.00;99.90
17740;DHT22;8990;33.226;-97.150;2023-04-08T13:50:08;15.10;99.90
17740;DHT22;8990;33.226;-97.150;2023-04-08T13:52:37;15.10;99.90
17740;DHT22;8990;33.226;-97.150;2023-04-08T13:55:07;15.10;99.90
17740;DHT22;8990;33.226;-97.150;2023-04-08T13:57:38;15.10;99.90
17740;DHT22;8990;33.226;-97.150;2023-04-08T14:00:09;15.10;99.90
17740;DHT22;8990;33.226;-97.150;2023-04-08T14:02:38;15.20;99.90
17740;DHT22;8990;33.226;-97.150;2023-04-08T14:05:07;15.20;99.90
17740;DHT22;8990;33.226;-97.150;2023-04-08T14:07:36;15.20;99.90
17740;DHT22;8990;33.226;-97.150;2023-04-08T14:10:06;15.30;99.90
17740;DHT22;8990;33.226;-97.150;2023-04-08T14:12:37;15.40;99.90
17740;DHT22;8990;33.226;-97.150;2023-04-08T14:15:07;15.40;99.90
17740;DHT22;8990;33.226;-97.150;2023-04-08T14:17:36;15.50;99.90
17740;DHT22;8990;33.226;-97.150;2023-04-08T14:20:06;15.60;99.90
17740;DHT22;8990;33.226;-97.150;2023-04-08T14:22:35;15.60;99.90
17740;DHT22;8990;33.226;-97.150;2023-04-08T14:25:04;15.70;99.90
17740;DHT22;8990;33.226;-97.150;2023-04-08T14:27:33;15.90;99.90
17740;DHT22;8990;33.226;-97.150;2023-04-08T14:30:05;16.00;99.90
17740;DHT22;8990;33.226;-97.150;2023-04-08T14:32:34;15.90;99.90
17740;DHT22;8990;33.226;-97.150;2023-04-08T14:35:03;15.90;99.90
17740;DHT22;8990;33.226;-97.150;2023-04-08T14:37:32;15.80;99.90
17740;DHT22;8990;33.226;-97.150;2023-04-08T14:40:06;15.90;99.90
17740;DHT22;8990;33.226;-97.150;2023-04-08T14:42:35;15.70;99.90
17740;DHT22;8990;33.226;-97.150;2023-04-08T14:45:06;15.80;99.90
17740;DHT22;8990;33.226;-97.150;2023-04-08T14:47:36;15.90;99.90
17740;DHT22;8990;33.226;-97.150;2023-04-08T14:50:06;15.90;99.90
17740;DHT22;8990;33.226;-97.150;2023-04-08T14:52:35;15.90;99.90
17740;DHT22;8990;33.226;-97.150;2023-04-08T14:55:04;16.00;99.90
17740;DHT22;8990;33.226;-97.150;2023-04-08T14:57:34;16.10;99.90
17740;DHT22;8990;33.226;-97.150;2023-04-08T15:00:05;16.00;99.90
17740;DHT22;8990;33.226;-97.150;2023-04-08T15:02:35;16.20;99.90
17740;DHT22;8990;33.226;-97.150;2023-04-08T15:05:05;16.20;99.90
17740;DHT22;8990;33.226;-97.150;2023-04-08T15:07:34;16.40;99.90
17740;DHT22;8990;33.226;-97.150;2023-04-08T15:10:03;16.40;99.90
17740;DHT22;8990;33.226;-97.150;2023-04-08T15:12:32;16.30;99.90
17740;DHT22;8990;33.226;-97.150;2023-04-08T15:15:04;16.90;99.90
17740;DHT22;8990;33.226;-97.150;2023-04-08T15:17:33;16.40;99.90
17740;DHT22;8990;33.226;-97.150;2023-04-08T15:20:02;16.50;99.90
17740;DHT22;8990;33.226;-97.150;2023-04-08T15:22:31;16.60;99.90
17740;DHT22;8990;33.226;-97.150;2023-04-08T15:25:00;16.70;99.90
17740;DHT22;8990;33.226;-97.150;2023-04-08T15:27:30;16.60;99.90
17740;DHT22;8990;33.226;-97.150;2023-04-08T15:30:00;16.60;99.90
17740;DHT22;8990;33.226;-97.150;2023-04-08T15:32:31;16.60;99.90
17740;DHT22;8990;33.226;-97.150;2023-04-08T15:35:00;16.70;99.90